Antlers, OK (74523)

3:34 AM CDT on August 28, 2015 (GMT -0500)
Antlers South Shady Pines | | Change Station
CLOSE
Current Station
Personal Weather Station
Location: Antlers, OK
Elevation: 538 ft
Nearby Weather Stations

Elev 538 ft 34.20 °N, 95.62 °W | Updated 12 minutes ago

Clear
Clear
65.3 °F
Feels Like 65.3 °F
N
0.0
Wind Variable Wind from ESE

Today
High -- | Low -- °F
--% Chance of Precip.
Yesterday
High -- | Low -- °F
Precip. -- in
6:52 AM 7:53 PM
Waxing Gibbous, 97% visible
Pressure 30.03 in
Visibility -9999.0 miles
Clouds Clear
Dew Point 64 °F
Humidity 97%
Rainfall 0.00 in
Snow Depth Not available.
UV 0 out of 12
Pollen 8.90 out of 12
Air Quality Not available.
Flu Activity Not available.
METAR KHHW 280815Z AUTO 13003KT CLR 21/18 A3003 RMK AO2 T02130176
Pressure 30.03 in
Visibility -9999.0 miles
Clouds Clear
Dew Point 64 °F
Humidity 97%
Rainfall 0.00 in
Snow Depth Not available.
UV 0 out of 12
Pollen 8.90 out of 12
Air Quality Not available.
Flu Activity Not available.
METAR KHHW 280815Z AUTO 13003KT CLR 21/18 A3003 RMK AO2 T02130176

10-Day Weather Forecast

×

Almanac

Astronomy

Aug. 28, 2015 Rise Set
Actual Time
Civil Twilight
Nautical Twilight
Astronomical Twilight
Moon
Length of Visible Light
Length of Day
Tomorrow will be .
, % of the Moon is Illuminated

Today's Extremes

State Highs State Lows

Community

WunderPhotos

Upload Photos

1,850,348 photos uploaded!

WunderBlogs® & News

Nearby

Air Quality

  Air Quality AQ Index Pollutant
Not available.

Snow Depth

Station Depth Elevation

Earthquake Activity

City Distance Mag. Time & Date
Minimum magnitude displayed is 2.5.

Coastal Water Temperatures

Place Temperature

Stations

Nearby Weather Stations

Station Location Temp. Windchill Dew Point Humidity Wind Precip. Elev Updated Type